createdAt,value
2022-07-25T04:03:42.684Z,100506.44
2022-07-25T04:06:47.072Z,100522.06
2022-07-25T04:09:49.163Z,100520.25
2022-07-25T04:12:51.542Z,100526.50
2022-07-25T04:15:53.650Z,100520.16
2022-07-25T04:18:56.332Z,100518.59
2022-07-25T04:21:58.976Z,100521.06
2022-07-25T04:25:01.757Z,100528.81
2022-07-25T04:28:04.109Z,100526.06
2022-07-25T04:31:06.579Z,100524.03
2022-07-25T04:34:09.019Z,100520.38
2022-07-25T04:37:11.633Z,100528.06
2022-07-25T04:40:13.739Z,100534.09
2022-07-25T04:43:16.175Z,100524.06
2022-07-25T04:46:22.048Z,100526.44
2022-07-25T04:49:24.451Z,100522.00
2022-07-25T04:52:26.950Z,100526.69
2022-07-25T04:55:29.349Z,100514.31
2022-07-25T04:58:31.870Z,100518.53
2022-07-25T05:01:35.196Z,100519.78
2022-07-25T05:04:43.446Z,100522.59
2022-07-25T05:07:47.583Z,100526.41
2022-07-25T05:10:49.787Z,100528.37
2022-07-25T05:13:52.139Z,100518.13
2022-07-25T05:16:54.329Z,100525.75
2022-07-25T05:19:58.247Z,100521.75
2022-07-25T05:23:00.325Z,100529.34
2022-07-25T05:26:02.654Z,100520.78
2022-07-25T05:29:04.775Z,100520.78
2022-07-25T05:32:07.127Z,100520.91
2022-07-25T05:35:09.850Z,100518.28
2022-07-25T05:38:12.192Z,100511.63
2022-07-25T05:41:14.303Z,100511.72
2022-07-25T05:44:16.811Z,100513.25
2022-07-25T05:47:18.874Z,100505.84
2022-07-25T05:50:21.235Z,100509.78
2022-07-25T05:53:23.336Z,100510.16
2022-07-25T05:56:25.783Z,100513.69
2022-07-25T05:59:27.992Z,100512.91
2022-07-25T06:02:30.631Z,100508.88
2022-07-25T06:05:33.100Z,100514.87
2022-07-25T06:08:38.679Z,100508.75
2022-07-25T06:11:54.571Z,100518.06
2022-07-25T06:15:02.069Z,100504.53
2022-07-25T06:18:04.804Z,100509.38
2022-07-25T06:21:06.888Z,100515.03
2022-07-25T06:24:09.670Z,100511.22
2022-07-25T06:27:13.381Z,100512.81
2022-07-25T06:30:20.588Z,100509.69
2022-07-25T06:33:22.946Z,100511.97
2022-07-25T06:36:32.427Z,100504.78
2022-07-25T06:39:35.138Z,100499.31
2022-07-25T06:42:42.259Z,100502.44
2022-07-25T06:45:47.335Z,100500.41
2022-07-25T06:48:49.668Z,100486.56
2022-07-25T06:51:51.789Z,100486.91
2022-07-25T06:54:54.130Z,100481.94
2022-07-25T06:57:56.213Z,100483.31
2022-07-25T07:01:01.072Z,100480.09
2022-07-25T07:04:04.434Z,100478.78
2022-07-25T07:07:07.050Z,100473.56
2022-07-25T07:10:09.453Z,100474.31
2022-07-25T07:13:15.127Z,100463.13
2022-07-25T07:16:20.712Z,100472.88
2022-07-25T07:19:23.177Z,100470.72
2022-07-25T07:22:25.609Z,100474.97
2022-07-25T07:25:28.605Z,100466.56
2022-07-25T07:28:30.727Z,100468.97
2022-07-25T07:31:33.151Z,100465.91
2022-07-25T07:34:35.469Z,100463.87
2022-07-25T07:37:43.236Z,100461.91
2022-07-25T07:40:45.833Z,100470.66
2022-07-25T07:43:48.229Z,100468.56
2022-07-25T07:46:50.334Z,100468.47
2022-07-25T07:49:52.742Z,100471.53
2022-07-25T07:52:56.648Z,100469.81
2022-07-25T07:55:58.992Z,100456.00
2022-07-25T07:59:01.227Z,100458.81
2022-07-25T08:02:03.666Z,100465.06
2022-07-25T08:05:06.693Z,100456.41
2022-07-25T08:08:11.459Z,100464.97
2022-07-25T08:11:13.888Z,100459.31
2022-07-25T08:14:16.003Z,100461.66
2022-07-25T08:17:19.094Z,100455.38
2022-07-25T08:20:38.124Z,100451.19
2022-07-25T08:23:41.066Z,100455.34
2022-07-25T08:26:43.154Z,100447.09
2022-07-25T08:29:45.497Z,100445.91
2022-07-25T08:32:48.790Z,100442.09
2022-07-25T08:35:54.562Z,100432.91
2022-07-25T08:38:56.669Z,100434.06
2022-07-25T08:41:59.968Z,100438.25
2022-07-25T08:45:07.163Z,100434.09
2022-07-25T08:48:10.989Z,100432.88
2022-07-25T08:51:14.071Z,100429.50
2022-07-25T08:54:16.988Z,100430.63
2022-07-25T08:57:19.116Z,100428.78
2022-07-25T09:00:26.506Z,100425.97
2022-07-25T09:03:32.854Z,100427.31
2022-07-25T09:06:35.412Z,100417.25
2022-07-25T09:09:39.244Z,100414.28
2022-07-25T09:12:42.945Z,100411.53
2022-07-25T09:15:49.486Z,100415.06
2022-07-25T09:18:52.454Z,100409.94
2022-07-25T09:22:01.390Z,100407.16
2022-07-25T09:25:03.927Z,100397.88
2022-07-25T09:28:11.118Z,100402.03
2022-07-25T09:31:14.634Z,100403.53
2022-07-25T09:34:29.729Z,100398.53
2022-07-25T09:37:32.061Z,100389.09
2022-07-25T09:40:34.174Z,100396.16
2022-07-25T09:43:38.450Z,100386.63
2022-07-25T09:46:40.566Z,100385.66
2022-07-25T09:49:45.269Z,100386.34
2022-07-25T09:52:47.673Z,100380.78
2022-07-25T09:55:50.157Z,100374.72
2022-07-25T09:58:52.870Z,100369.03
2022-07-25T10:02:17.023Z,100363.25
2022-07-25T10:05:23.692Z,100365.63
2022-07-25T10:08:26.586Z,100375.31
2022-07-25T10:11:30.294Z,100357.62
2022-07-25T10:14:33.758Z,100348.16
2022-07-25T10:17:38.477Z,100347.28
2022-07-25T10:20:40.709Z,100343.00
2022-07-25T10:23:43.390Z,100347.50
2022-07-25T10:26:52.536Z,100334.97
2022-07-25T10:29:55.039Z,100322.25
2022-07-25T10:33:03.640Z,100337.75
2022-07-25T10:36:07.859Z,100321.91
2022-07-25T10:39:12.709Z,100312.94
2022-07-25T10:42:17.379Z,100308.00
2022-07-25T10:45:19.446Z,100306.94
2022-07-25T10:48:30.743Z,100302.16
